Yakima, Washington
Current Conditions -  °F | °C
As of 2:13 AM on Thursday 29 Jan 2015 (Local Time) from KYKM Reporting Station
Haze Haze  
Wind Chill: 35°   Ceiling: 200
Heat Index: 35°   Visibility: 3mi
Dew Point: 33°   Wind: 0mph
Humidity: 92%   Direction: NA
Pressure: 30.48"   Gusts: NA
Location:  46.6°N, 120.5°W
Report Text: KYKM 291013Z AUTO 00000KT 3SM BR OVC002 02/01 A3048 RMK AO2 T00170006
Loading
Personal Weather Stations






























Interactive Weather Map New forecast layout! Learn more

10-Day Weather Forecast

Advertisements
Track Severe Weather on mobile